Time;durP1;ratioP1;P1;durP2;ratioP2;P2;SDS_P1;SDS_P2;PMS_P1;PMS_P2;Temp;Humidity;BMP_temperature;BMP_pressure;BME280_temperature;BME280_humidity;BME280_pressure;Samples;Min_cycle;Max_cycle;Signal;HPM_P1;HPM_P2
2023/09/28 00:01:27;;;;;;;21.40;13.50;;;;;;;11.74;100.00;99484.35;137752;1272;22710;-80
2023/09/28 00:04:32;;;;;;;23.00;15.00;;;;;;;11.70;100.00;99483.76;137193;1257;22233;-80
2023/09/28 00:07:33;;;;;;;21.30;13.70;;;;;;;11.69;100.00;99481.82;137291;1272;22198;-80
2023/09/28 00:10:34;;;;;;;14.70;13.00;;;;;;;11.65;100.00;99477.92;137625;1272;22492;-80
2023/09/28 00:13:36;;;;;;;30.00;14.10;;;;;;;11.62;100.00;99475.94;137421;1272;22680;-80
2023/09/28 00:16:40;;;;;;;19.50;13.60;;;;;;;11.59;100.00;99476.23;137230;1272;22254;-82
2023/09/28 00:19:41;;;;;;;18.70;13.70;;;;;;;11.57;100.00;99474.09;137086;1272;22595;-80
2023/09/28 00:22:42;;;;;;;20.10;13.90;;;;;;;11.56;100.00;99470.77;137740;1272;22386;-80
2023/09/28 00:25:43;;;;;;;22.80;14.30;;;;;;;11.60;100.00;99468.93;137290;1272;22232;-80
2023/09/28 00:28:44;;;;;;;20.80;13.90;;;;;;;11.62;100.00;99470.00;137214;1272;22512;-80
2023/09/28 00:31:45;;;;;;;21.00;14.50;;;;;;;11.63;100.00;99467.23;137795;1272;22249;-80
2023/09/28 00:34:47;;;;;;;16.10;13.10;;;;;;;11.66;100.00;99467.98;137121;1272;22807;-81
2023/09/28 00:37:48;;;;;;;21.10;13.30;;;;;;;11.68;100.00;99467.67;137179;1272;22166;-83
2023/09/28 00:40:49;;;;;;;21.80;13.60;;;;;;;11.66;100.00;99472.00;137646;1272;22618;-81
2023/09/28 00:43:50;;;;;;;16.80;13.20;;;;;;;11.62;100.00;99469.49;137246;1272;22543;-81
2023/09/28 00:46:51;;;;;;;44.00;15.90;;;;;;;11.60;100.00;99472.41;137264;1272;22173;-82
2023/09/28 00:49:52;;;;;;;41.00;16.50;;;;;;;11.59;100.00;99471.52;137487;1272;22533;-82
2023/09/28 00:52:53;;;;;;;27.50;13.80;;;;;;;11.57;100.00;99472.19;137349;1272;22185;-83
2023/09/28 00:55:54;;;;;;;18.80;14.00;;;;;;;11.54;100.00;99471.09;137230;1272;22383;-82
2023/09/28 00:58:56;;;;;;;18.20;13.40;;;;;;;11.49;100.00;99469.61;137188;1272;22458;-82
2023/09/28 01:01:57;;;;;;;77.10;17.90;;;;;;;11.46;100.00;99468.00;137591;1272;22176;-81
2023/09/28 01:04:58;;;;;;;21.00;14.40;;;;;;;11.47;100.00;99466.44;137291;1272;22356;-81
2023/09/28 01:08:00;;;;;;;25.70;14.60;;;;;;;11.49;100.00;99465.59;137246;1272;22161;-81
2023/09/28 01:11:03;;;;;;;25.50;13.40;;;;;;;11.48;100.00;99462.63;137702;1272;22386;-83
2023/09/28 01:14:04;;;;;;;31.80;14.80;;;;;;;11.50;100.00;99464.58;137187;1272;22351;-82
2023/09/28 01:17:07;;;;;;;21.10;13.50;;;;;;;11.49;100.00;99458.46;137260;1272;22548;-82
2023/09/28 01:20:17;;;;;;;79.60;19.40;;;;;;;11.47;100.00;99457.55;137674;1272;25239;-83
2023/09/28 01:23:19;;;;;;;21.00;12.60;;;;;;;11.44;100.00;99455.59;137538;1272;22533;-82
2023/09/28 01:26:20;;;;;;;21.00;12.10;;;;;;;11.39;100.00;99457.58;137298;1272;22522;-82
2023/09/28 01:29:21;;;;;;;17.70;11.80;;;;;;;11.32;100.00;99455.88;137152;1272;22633;-80
2023/09/28 01:32:22;;;;;;;16.50;11.70;;;;;;;11.30;100.00;99452.17;137675;1272;22248;-80
2023/09/28 01:35:23;;;;;;;18.20;12.00;;;;;;;11.27;100.00;99454.71;137227;1272;22244;-81
2023/09/28 01:38:24;;;;;;;17.30;12.00;;;;;;;11.22;100.00;99453.73;137192;1272;22547;-81
2023/09/28 01:41:25;;;;;;;19.80;11.70;;;;;;;11.18;100.00;99454.89;137724;1272;22319;-81
2023/09/28 01:44:26;;;;;;;24.40;12.10;;;;;;;11.16;100.00;99456.23;137251;1272;22430;-81
2023/09/28 01:47:28;;;;;;;31.50;13.00;;;;;;;11.14;100.00;99451.85;137149;1272;22612;-81
2023/09/28 01:50:29;;;;;;;17.50;11.40;;;;;;;11.14;100.00;99452.91;137685;1272;23015;-80
2023/09/28 01:53:30;;;;;;;62.30;16.40;;;;;;;11.11;100.00;99453.18;137331;1272;22446;-83
2023/09/28 01:56:31;;;;;;;14.30;10.50;;;;;;;11.07;100.00;99455.73;137023;1272;22180;-81
2023/09/28 01:59:32;;;;;;;16.90;11.00;;;;;;;11.03;100.00;99447.45;137554;1272;22544;-83
2023/09/28 02:02:34;;;;;;;15.50;10.30;;;;;;;10.96;100.00;99448.89;137363;1272;22291;-81
2023/09/28 02:05:35;;;;;;;21.00;10.70;;;;;;;10.91;100.00;99451.91;137180;1272;22266;-82
2023/09/28 02:08:36;;;;;;;14.90;10.60;;;;;;;10.86;100.00;99448.34;137443;1272;25408;-81
2023/09/28 02:11:43;;;;;;;15.40;11.00;;;;;;;10.80;100.00;99455.86;137554;1272;22348;-82
2023/09/28 02:14:44;;;;;;;18.10;11.00;;;;;;;10.77;100.00;99455.11;137380;1272;22248;-81
2023/09/28 02:17:45;;;;;;;12.70;11.10;;;;;;;10.75;100.00;99455.43;137350;1272;22550;-78
2023/09/28 02:20:46;;;;;;;12.70;10.90;;;;;;;10.74;100.00;99452.61;137840;1272;22250;-80
2023/09/28 02:23:48;;;;;;;530.00;38.80;;;;;;;10.72;100.00;99455.72;137104;1272;22542;-80
2023/09/28 02:26:51;;;;;;;219.70;24.20;;;;;;;10.74;100.00;99457.48;137273;1272;22316;-81
2023/09/28 02:29:53;;;;;;;155.30;21.50;;;;;;;10.76;100.00;99458.91;137597;1272;22530;-81
2023/09/28 02:32:55;;;;;;;36.40;12.30;;;;;;;10.75;100.00;99451.94;137386;1272;22355;-80
2023/09/28 02:35:56;;;;;;;77.70;15.10;;;;;;;10.71;100.00;99452.57;136942;1272;22210;-80
2023/09/28 02:38:57;;;;;;;19.40;11.00;;;;;;;10.73;100.00;99452.59;137386;1272;25217;-81
2023/09/28 02:41:58;;;;;;;13.70;10.60;;;;;;;10.71;100.00;99453.42;137645;1272;22179;-81
2023/09/28 02:44:59;;;;;;;20.20;12.10;;;;;;;10.69;100.00;99459.46;137248;1272;22232;-80
2023/09/28 02:48:01;;;;;;;19.00;12.40;;;;;;;10.68;100.00;99454.41;137098;1272;24330;-80
2023/09/28 02:51:04;;;;;;;13.50;11.00;;;;;;;10.64;100.00;99461.46;137731;1272;23122;-80
2023/09/28 02:54:06;;;;;;;20.00;13.00;;;;;;;10.62;100.00;99460.02;137165;1272;22217;-81
2023/09/28 02:57:07;;;;;;;23.30;13.40;;;;;;;10.68;100.00;99459.79;137098;1272;22442;-81
2023/09/28 03:00:18;;;;;;;21.60;12.70;;;;;;;10.72;100.00;99457.80;137903;1254;22931;-80
2023/09/28 03:03:19;;;;;;;46.20;14.80;;;;;;;10.75;100.00;99457.69;137384;1272;22846;-80
2023/09/28 03:06:20;;;;;;;25.40;13.30;;;;;;;10.79;100.00;99457.24;137221;1272;22381;-81
2023/09/28 03:09:21;;;;;;;19.50;12.90;;;;;;;10.87;100.00;99453.75;137331;1272;22534;-80
2023/09/28 03:12:23;;;;;;;28.60;15.20;;;;;;;10.93;100.00;99453.35;137555;1272;22225;-82
2023/09/28 03:15:24;;;;;;;221.20;25.40;;;;;;;10.99;100.00;99451.21;137185;1272;22230;-81
2023/09/28 03:18:26;;;;;;;135.20;21.70;;;;;;;11.08;100.00;99452.42;137355;1272;22557;-81
2023/09/28 03:21:29;;;;;;;29.00;15.80;;;;;;;11.12;100.00;99455.83;137726;1272;22560;-82
2023/09/28 03:24:31;;;;;;;26.10;13.40;;;;;;;11.13;100.00;99454.10;137839;1272;22210;-80
2023/09/28 03:27:32;;;;;;;23.40;14.80;;;;;;;11.13;100.00;99453.05;137794;1272;22114;-81
2023/09/28 03:30:33;;;;;;;20.60;13.60;;;;;;;11.17;100.00;99450.69;137862;1272;22063;-80
2023/09/28 03:33:34;;;;;;;27.40;14.70;;;;;;;11.19;100.00;99452.63;137879;1272;22087;-80
2023/09/28 03:36:35;;;;;;;17.10;12.40;;;;;;;11.22;100.00;99450.42;137822;1272;22254;-80
2023/09/28 03:39:37;;;;;;;24.60;14.50;;;;;;;11.21;100.00;99453.37;137801;1272;22148;-81
2023/09/28 03:42:39;;;;;;;31.50;13.90;;;;;;;11.40;100.00;99450.63;137808;1270;22111;-82
2023/09/28 03:45:40;;;;;;;25.20;15.60;;;;;;;11.61;100.00;99451.00;137838;1272;22241;-81
2023/09/28 03:48:41;;;;;;;1999.90;385.50;;;;;;;12.23;100.00;99445.77;137805;1272;22205;-78
2023/09/28 03:51:42;;;;;;;172.20;27.20;;;;;;;12.08;100.00;99445.88;137800;1272;22252;-81
2023/09/28 03:54:43;;;;;;;41.30;16.70;;;;;;;11.92;100.00;99445.79;137805;1272;22672;-80
2023/09/28 03:57:44;;;;;;;29.20;14.40;;;;;;;11.79;100.00;99441.39;137793;1272;22094;-81
2023/09/28 04:00:46;;;;;;;109.60;19.40;;;;;;;11.71;100.00;99436.86;137811;1272;22533;-82
2023/09/28 04:03:47;;;;;;;32.50;15.40;;;;;;;11.70;100.00;99440.16;137779;1272;22137;-81
2023/09/28 04:06:49;;;;;;;19.60;14.60;;;;;;;11.67;100.00;99442.03;137847;1272;22624;-81
2023/09/28 04:09:50;;;;;;;27.30;15.50;;;;;;;11.65;100.00;99439.90;137865;1272;22156;-81
2023/09/28 04:12:52;;;;;;;27.90;15.40;;;;;;;11.61;100.00;99441.40;137870;1272;22137;-82
2023/09/28 04:15:53;;;;;;;34.80;15.90;;;;;;;11.58;100.00;99442.23;137849;1257;22245;-80
2023/09/28 04:18:54;;;;;;;34.50;16.20;;;;;;;11.57;100.00;99445.70;137845;1272;22152;-81
2023/09/28 04:21:55;;;;;;;26.50;14.80;;;;;;;11.52;100.00;99440.91;137827;1272;22111;-80
2023/09/28 04:24:56;;;;;;;52.60;26.00;;;;;;;11.46;100.00;99442.20;137790;1272;22117;-81
2023/09/28 04:27:57;;;;;;;44.60;17.60;;;;;;;11.48;100.00;99444.33;137786;1260;22114;-80
2023/09/28 04:30:59;;;;;;;42.30;18.00;;;;;;;11.48;100.00;99449.02;137793;1272;22214;-80
2023/09/28 04:34:00;;;;;;;26.90;16.70;;;;;;;11.45;100.00;99447.23;137816;1272;22115;-81
2023/09/28 04:37:03;;;;;;;25.40;14.80;;;;;;;11.44;100.00;99447.39;137814;1272;22164;-81
2023/09/28 04:40:04;;;;;;;24.80;14.40;;;;;;;11.44;100.00;99453.48;137786;1272;22121;-82
2023/09/28 04:43:05;;;;;;;25.10;14.90;;;;;;;11.41;100.00;99453.25;137831;1270;22832;-81
2023/09/28 04:46:07;;;;;;;38.10;15.80;;;;;;;11.35;100.00;99454.03;137826;1272;22233;-81
2023/09/28 04:49:08;;;;;;;22.80;14.60;;;;;;;11.32;100.00;99450.32;137825;1272;22150;-83
2023/09/28 04:52:10;;;;;;;25.80;15.30;;;;;;;11.34;100.00;99454.70;137826;1272;22179;-83
2023/09/28 04:55:12;;;;;;;71.70;17.90;;;;;;;11.37;100.00;99453.20;137816;1272;22186;-80
2023/09/28 04:58:13;;;;;;;1999.90;307.10;;;;;;;11.43;100.00;99455.21;137809;1272;22132;-83
2023/09/28 05:01:15;;;;;;;132.70;27.80;;;;;;;11.51;100.00;99457.27;137786;1272;22106;-82
2023/09/28 05:04:16;;;;;;;61.50;18.80;;;;;;;11.60;100.00;99461.59;137795;1272;22150;-82
2023/09/28 05:07:18;;;;;;;40.60;18.10;;;;;;;11.66;100.00;99458.40;137779;1272;22876;-79
2023/09/28 05:10:19;;;;;;;33.00;16.80;;;;;;;11.71;100.00;99461.27;137804;1272;22573;-82
2023/09/28 05:13:22;;;;;;;1561.00;146.50;;;;;;;11.75;100.00;99459.09;137794;1272;22558;-80
2023/09/28 05:16:23;;;;;;;58.10;19.10;;;;;;;11.82;100.00;99461.85;137775;1272;22150;-80
2023/09/28 05:19:25;;;;;;;30.50;17.10;;;;;;;11.91;100.00;99461.13;137841;1272;22093;-80
2023/09/28 05:22:27;;;;;;;26.00;16.00;;;;;;;11.99;100.00;99463.70;137775;1272;22108;-79
2023/09/28 05:25:28;;;;;;;22.50;16.30;;;;;;;12.02;100.00;99461.98;137842;1272;22115;-79
2023/09/28 05:28:32;;;;;;;24.10;15.30;;;;;;;12.10;100.00;99459.34;137845;1272;22180;-81
2023/09/28 05:31:33;;;;;;;25.00;15.60;;;;;;;12.22;100.00;99457.63;137795;1272;22871;-80
2023/09/28 05:34:35;;;;;;;23.00;16.20;;;;;;;12.34;100.00;99456.58;137820;1272;22134;-81
2023/09/28 05:37:36;;;;;;;27.50;15.90;;;;;;;12.50;100.00;99461.54;137816;1272;22273;-79
2023/09/28 05:40:37;;;;;;;32.90;15.70;;;;;;;12.68;100.00;99463.00;137815;1272;22126;-80
2023/09/28 05:43:38;;;;;;;28.40;16.50;;;;;;;12.87;100.00;99468.82;137815;1272;22288;-80
2023/09/28 05:46:40;;;;;;;22.70;15.10;;;;;;;13.06;100.00;99469.42;137855;1272;22115;-80
2023/09/28 05:49:42;;;;;;;140.30;24.60;;;;;;;13.23;100.00;99470.36;137827;1272;22500;-79
2023/09/28 05:52:43;;;;;;;167.60;26.70;;;;;;;13.43;100.00;99471.97;137829;1272;22262;-82
2023/09/28 05:55:44;;;;;;;33.80;18.40;;;;;;;13.63;100.00;99472.87;137834;1272;22134;-79
2023/09/28 05:58:45;;;;;;;194.40;24.00;;;;;;;13.78;100.00;99470.91;137760;1267;22218;-80
2023/09/28 06:01:46;;;;;;;38.80;16.20;;;;;;;13.98;100.00;99471.46;137822;1269;22133;-80
2023/09/28 06:04:47;;;;;;;26.60;15.20;;;;;;;14.14;100.00;99475.96;137784;1272;22125;-79
2023/09/28 06:07:49;;;;;;;47.80;17.40;;;;;;;14.32;100.00;99476.63;137787;1272;23002;-80
2023/09/28 06:10:50;;;;;;;26.40;13.90;;;;;;;14.51;100.00;99480.27;137800;1272;22266;-79
2023/09/28 06:13:51;;;;;;;22.40;15.20;;;;;;;14.66;100.00;99482.64;137798;1272;22119;-79
2023/09/28 06:16:52;;;;;;;22.60;15.10;;;;;;;14.83;100.00;99481.02;137822;1272;22383;-78
2023/09/28 06:19:53;;;;;;;31.70;15.40;;;;;;;14.94;100.00;99484.92;137855;1272;22153;-78
2023/09/28 06:22:54;;;;;;;23.80;14.50;;;;;;;15.03;100.00;99486.19;137851;1272;22136;-78
2023/09/28 06:25:56;;;;;;;25.80;14.30;;;;;;;15.22;100.00;99482.92;137846;1272;22154;-79
2023/09/28 06:28:57;;;;;;;32.40;15.50;;;;;;;15.41;100.00;99485.25;137895;1272;22183;-81
2023/09/28 06:31:58;;;;;;;19.70;14.20;;;;;;;15.60;100.00;99480.77;137889;1272;22129;-80
2023/09/28 06:34:59;;;;;;;27.00;15.80;;;;;;;15.81;100.00;99481.36;137914;1272;22118;-81
2023/09/28 06:38:01;;;;;;;25.10;14.70;;;;;;;15.99;100.00;99483.30;137879;1272;22110;-80
2023/09/28 06:42:40;;;;;;;23.00;14.70;;;;;;;16.30;100.00;99484.52;133040;1305;544888;-81
2023/09/28 06:45:42;;;;;;;59.60;16.20;;;;;;;16.56;100.00;99485.73;135814;1287;23035;-82
2023/09/28 06:48:43;;;;;;;314.50;33.50;;;;;;;16.78;100.00;99486.06;136288;1287;22649;-80
2023/09/28 06:51:46;;;;;;;31.40;15.40;;;;;;;16.93;100.00;99490.58;136315;1287;22264;-81
2023/09/28 06:54:47;;;;;;;22.90;13.80;;;;;;;17.08;100.00;99490.17;135577;1284;223822;-81
2023/09/28 06:57:48;;;;;;;21.00;13.70;;;;;;;17.22;100.00;99487.30;136768;1277;22561;-80
2023/09/28 07:00:50;;;;;;;114.00;19.80;;;;;;;17.40;100.00;99492.16;137125;1277;22162;-82
2023/09/28 07:03:52;;;;;;;64.20;18.70;;;;;;;17.62;100.00;99498.20;137183;1277;22317;-80
2023/09/28 07:06:54;;;;;;;24.70;13.90;;;;;;;17.84;100.00;99500.55;136836;1263;22204;-82
2023/09/28 07:09:55;;;;;;;19.70;13.60;;;;;;;18.00;100.00;99493.03;137184;1277;22339;-81
2023/09/28 07:12:56;;;;;;;27.40;14.40;;;;;;;18.16;100.00;99489.02;136769;1277;22620;-82
2023/09/28 07:15:57;;;;;;;20.30;14.20;;;;;;;18.35;100.00;99491.35;136672;1277;22729;-81
2023/09/28 07:18:59;;;;;;;23.50;13.10;;;;;;;18.48;100.00;99490.35;137200;1277;22558;-80
2023/09/28 07:22:01;;;;;;;27.50;13.20;;;;;;;18.62;100.00;99491.45;136908;1277;22321;-82
2023/09/28 07:25:02;;;;;;;24.70;12.40;;;;;;;18.83;100.00;99488.94;136813;1277;22242;-78
2023/09/28 07:28:03;;;;;;;31.80;13.70;;;;;;;18.95;100.00;99490.21;137218;1277;22080;-80
2023/09/28 07:31:04;;;;;;;22.30;13.30;;;;;;;19.16;100.00;99490.87;137147;1266;22265;-81
2023/09/28 07:34:06;;;;;;;21.80;12.20;;;;;;;19.38;100.00;99494.48;137264;1265;22267;-80
2023/09/28 07:37:07;;;;;;;39.60;13.80;;;;;;;19.54;100.00;99494.81;137224;1277;22157;-82
2023/09/28 07:40:10;;;;;;;27.90;14.30;;;;;;;19.69;100.00;99494.06;137143;1277;22799;-81
2023/09/28 07:43:11;;;;;;;21.80;12.60;;;;;;;19.87;100.00;99494.86;137124;1277;22295;-80
2023/09/28 07:46:13;;;;;;;17.40;12.50;;;;;;;19.98;100.00;99489.25;137147;1277;22344;-80
2023/09/28 07:49:14;;;;;;;22.20;12.90;;;;;;;20.08;100.00;99490.85;137090;1277;22745;-81
2023/09/28 07:52:16;;;;;;;23.00;13.70;;;;;;;20.18;100.00;99493.85;136743;1275;22282;-80
2023/09/28 07:55:17;;;;;;;23.50;14.70;;;;;;;20.32;100.00;99492.73;137102;1277;22796;-80
2023/09/28 08:02:01;;;;;;;27.60;14.50;;;;;;;20.63;100.00;99496.28;136547;1282;22759;-80
2023/09/28 08:05:02;;;;;;;27.20;14.20;;;;;;;20.73;100.00;99492.02;136573;1282;22292;-81
2023/09/28 08:08:04;;;;;;;25.90;14.30;;;;;;;20.80;100.00;99488.38;136567;1282;22288;-80
2023/09/28 08:11:05;;;;;;;21.90;13.80;;;;;;;20.95;100.00;99490.55;136569;1279;22236;-79
2023/09/28 08:17:36;;;;;;;22.20;14.50;;;;;;;21.26;100.00;99484.28;136313;1282;22365;-80
2023/09/28 08:20:37;;;;;;;53.80;15.10;;;;;;;21.43;100.00;99483.22;136584;1282;22230;-81
2023/09/28 08:23:38;;;;;;;66.50;16.00;;;;;;;21.54;100.00;99488.27;136540;1278;22431;-81
2023/09/28 08:26:39;;;;;;;35.00;13.40;;;;;;;21.67;100.00;99485.52;136526;1282;22307;-80
2023/09/28 08:29:40;;;;;;;21.10;13.40;;;;;;;21.82;100.00;99485.02;136589;1279;22296;-81
2023/09/28 08:32:42;;;;;;;1118.20;99.20;;;;;;;21.87;100.00;99484.89;136837;1271;22407;-80
2023/09/28 08:35:43;;;;;;;29.30;14.10;;;;;;;21.92;100.00;99484.05;137110;1277;22656;-81
2023/09/28 08:38:44;;;;;;;30.60;13.70;;;;;;;21.97;100.00;99484.12;137062;1277;22245;-80
2023/09/28 08:41:47;;;;;;;54.10;14.60;;;;;;;22.10;100.00;99486.48;137106;1277;22250;-82
2023/09/28 08:44:48;;;;;;;378.80;32.60;;;;;;;22.26;100.00;99492.82;137048;1277;22167;-82
2023/09/28 08:47:49;;;;;;;78.80;17.70;;;;;;;22.46;100.00;99493.37;137057;1277;22297;-80
2023/09/28 08:50:50;;;;;;;28.80;12.80;;;;;;;22.65;100.00;99488.81;137018;1277;22723;-83
2023/09/28 08:53:52;;;;;;;56.40;15.60;;;;;;;22.85;100.00;99490.06;137097;1278;22414;-81
2023/09/28 08:56:54;;;;;;;34.10;12.30;;;;;;;22.99;100.00;99491.11;136723;1277;22504;-80
2023/09/28 08:59:56;;;;;;;27.80;12.40;;;;;;;23.06;100.00;99495.17;136686;1278;22529;-82
2023/09/28 09:02:58;;;;;;;21.60;12.10;;;;;;;23.14;100.00;99491.20;137165;1277;22404;-82
2023/09/28 09:06:00;;;;;;;19.70;11.00;;;;;;;23.21;100.00;99486.73;137106;1273;22231;-82
2023/09/28 09:09:01;;;;;;;27.50;12.30;;;;;;;23.24;100.00;99485.94;136868;1277;22521;-80
2023/09/28 09:12:03;;;;;;;21.30;10.90;;;;;;;23.34;100.00;99484.75;137146;1278;22222;-80
2023/09/28 09:15:04;;;;;;;15.50;11.30;;;;;;;23.37;100.00;99486.79;137072;1277;22808;-80
2023/09/28 09:18:06;;;;;;;26.70;11.50;;;;;;;23.37;100.00;99485.71;137113;1277;22195;-80
2023/09/28 09:21:07;;;;;;;22.90;12.30;;;;;;;23.43;100.00;99478.82;137185;1277;22640;-80
2023/09/28 09:24:10;;;;;;;31.30;12.00;;;;;;;23.47;100.00;99480.13;137099;1277;22318;-78
2023/09/28 09:27:12;;;;;;;42.10;12.20;;;;;;;23.58;100.00;99479.98;137105;1277;22212;-80
2023/09/28 09:30:14;;;;;;;20.10;10.40;;;;;;;23.69;100.00;99476.63;137040;1277;22833;-78
2023/09/28 09:33:16;;;;;;;41.90;12.10;;;;;;;23.79;100.00;99476.14;137071;1277;22958;-81
2023/09/28 09:36:18;;;;;;;20.80;10.60;;;;;;;23.94;100.00;99477.43;137175;1277;22248;-79
2023/09/28 09:39:19;;;;;;;11.50;10.00;;;;;;;24.07;100.00;99476.64;137096;1277;22809;-80
2023/09/28 09:42:21;;;;;;;14.00;9.60;;;;;;;24.12;100.00;99483.24;137048;1277;22264;-80
2023/09/28 09:45:22;;;;;;;16.40;9.70;;;;;;;24.24;100.00;99477.88;137103;1271;22294;-81
2023/09/28 09:48:24;;;;;;;19.70;10.40;;;;;;;24.35;100.00;99480.56;136943;1278;22285;-80
2023/09/28 09:51:25;;;;;;;12.10;9.40;;;;;;;24.46;100.00;99485.16;137035;1277;22247;-81
2023/09/28 09:54:27;;;;;;;17.00;9.50;;;;;;;24.44;100.00;99482.75;137070;1277;22262;-80
2023/09/28 09:57:28;;;;;;;11.20;8.60;;;;;;;24.48;100.00;99479.04;137105;1277;22309;-81
2023/09/28 10:00:29;;;;;;;24.80;9.60;;;;;;;24.60;100.00;99479.36;137007;1277;22151;-80
2023/09/28 10:03:30;;;;;;;21.20;9.70;;;;;;;24.74;100.00;99481.88;137066;1277;22191;-78
2023/09/28 10:06:31;;;;;;;13.80;8.70;;;;;;;24.91;100.00;99478.77;137422;1273;22258;-79
2023/09/28 10:09:32;;;;;;;14.60;8.40;;;;;;;24.95;63.96;99476.48;137401;1273;22088;-80
2023/09/28 10:12:33;;;;;;;24.90;8.90;;;;;;;24.96;63.49;99470.20;137410;1273;22236;-80
2023/09/28 10:15:35;;;;;;;14.70;8.80;;;;;;;25.02;63.20;99467.01;137458;1273;22317;-79
2023/09/28 10:18:36;;;;;;;14.10;8.60;;;;;;;25.11;61.97;99465.95;137430;1273;22095;-81
2023/09/28 10:21:38;;;;;;;14.70;8.20;;;;;;;25.24;62.17;99464.95;137347;1273;22309;-82
2023/09/28 10:24:39;;;;;;;12.60;7.00;;;;;;;25.35;60.69;99465.94;137400;1273;22243;-81
2023/09/28 10:27:40;;;;;;;14.40;8.00;;;;;;;25.37;59.27;99466.93;137178;1273;22561;-81
2023/09/28 10:30:41;;;;;;;18.80;7.90;;;;;;;25.46;59.24;99466.06;137333;1273;22656;-81
2023/09/28 10:33:43;;;;;;;14.20;8.70;;;;;;;25.54;58.35;99465.02;137467;1273;22339;-80
2023/09/28 10:36:44;;;;;;;8.50;7.10;;;;;;;25.62;58.59;99465.25;136999;1273;22798;-81
2023/09/28 10:39:45;;;;;;;17.20;8.50;;;;;;;25.57;57.19;99461.89;137482;1273;22388;-83
2023/09/28 10:42:47;;;;;;;13.50;7.20;;;;;;;25.62;58.22;99459.02;137029;1273;22658;-82
2023/09/28 10:45:48;;;;;;;12.30;7.60;;;;;;;25.72;57.61;99454.38;136918;1273;22254;-81
2023/09/28 10:48:51;;;;;;;13.00;7.50;;;;;;;25.82;56.85;99451.31;137398;1261;22848;-82
2023/09/28 10:51:53;;;;;;;13.40;7.50;;;;;;;25.88;55.65;99449.79;137423;1273;22465;-82
2023/09/28 10:54:55;;;;;;;14.80;7.80;;;;;;;25.96;54.94;99449.44;137432;1273;22657;-81
2023/09/28 10:57:56;;;;;;;18.80;8.80;;;;;;;25.98;55.13;99449.36;137463;1273;22112;-83
2023/09/28 11:00:58;;;;;;;140.50;16.10;;;;;;;26.03;54.90;99450.98;137421;1272;22300;-81
2023/09/28 11:04:00;;;;;;;12.80;8.50;;;;;;;26.04;54.18;99452.37;137189;1273;22195;-82
2023/09/28 11:07:01;;;;;;;9.00;7.30;;;;;;;26.09;53.54;99448.97;137175;1273;22668;-82
2023/09/28 11:10:02;;;;;;;16.70;7.10;;;;;;;26.17;53.70;99447.75;137362;1273;22750;-81
2023/09/28 11:13:03;;;;;;;14.30;6.90;;;;;;;26.26;53.28;99443.40;137456;1273;22223;-82
2023/09/28 11:16:04;;;;;;;263.50;23.60;;;;;;;26.28;52.94;99439.77;137441;1267;22574;-82
2023/09/28 11:19:06;;;;;;;103.40;12.10;;;;;;;26.30;52.36;99436.80;137474;1273;22317;-82
2023/09/28 11:22:07;;;;;;;41.00;8.00;;;;;;;26.36;51.55;99434.27;137433;1266;22235;-81
2023/09/28 11:25:09;;;;;;;16.90;6.70;;;;;;;26.31;49.75;99433.77;137439;1266;22374;-81
2023/09/28 11:28:10;;;;;;;47.30;9.10;;;;;;;26.28;49.84;99431.92;137461;1273;22238;-82
2023/09/28 11:31:12;;;;;;;20.20;7.10;;;;;;;26.37;49.96;99432.45;137441;1273;22752;-83
2023/09/28 11:34:14;;;;;;;62.10;10.70;;;;;;;26.47;50.43;99429.69;137444;1273;22893;-81
2023/09/28 11:37:16;;;;;;;20.80;6.60;;;;;;;26.54;49.58;99426.17;137430;1273;22251;-82
2023/09/28 11:40:19;;;;;;;16.10;6.90;;;;;;;26.51;49.16;99424.71;137448;1273;22273;-82
2023/09/28 11:43:20;;;;;;;10.20;6.40;;;;;;;26.47;48.62;99421.64;137460;1273;22307;-81
2023/09/28 11:46:22;;;;;;;9.60;5.70;;;;;;;26.42;48.36;99419.90;137444;1273;22612;-82
2023/09/28 11:49:23;;;;;;;22.10;7.00;;;;;;;26.44;47.97;99418.96;137431;1273;22495;-80
2023/09/28 11:52:27;;;;;;;20.20;6.40;;;;;;;26.49;48.34;99416.23;137417;1273;22412;-82
2023/09/28 11:55:28;;;;;;;10.10;5.80;;;;;;;26.56;47.95;99414.12;137417;1273;22210;-82
2023/09/28 11:58:30;;;;;;;6.70;5.70;;;;;;;26.54;46.06;99412.39;137423;1273;22209;-82
2023/09/28 12:01:31;;;;;;;15.10;6.20;;;;;;;26.52;46.63;99408.05;137436;1273;22268;-82
2023/09/28 12:04:33;;;;;;;9.40;5.60;;;;;;;26.59;45.85;99410.59;137451;1273;22428;-81
2023/09/28 12:07:34;;;;;;;10.90;6.30;;;;;;;26.63;45.71;99402.36;137426;1273;22352;-81
2023/09/28 12:10:37;;;;;;;14.10;5.50;;;;;;;26.63;45.59;99402.04;137391;1272;22397;-82
2023/09/28 12:13:38;;;;;;;20.20;6.50;;;;;;;26.63;46.00;99402.90;137435;1273;22193;-82
2023/09/28 12:16:42;;;;;;;11.10;5.60;;;;;;;26.70;46.62;99405.65;137393;1273;22221;-82
2023/09/28 12:19:44;;;;;;;8.10;5.90;;;;;;;26.72;45.45;99403.96;137361;1273;22207;-81
2023/09/28 12:22:47;;;;;;;11.40;6.20;;;;;;;26.66;46.20;99403.85;137359;1273;22904;-81
2023/09/28 12:25:48;;;;;;;16.20;6.90;;;;;;;26.70;46.53;99403.33;137358;1273;22306;-81
2023/09/28 12:28:49;;;;;;;19.40;6.60;;;;;;;26.74;46.37;99401.36;137372;1273;22321;-82
2023/09/28 12:31:50;;;;;;;11.20;6.60;;;;;;;26.76;45.96;99400.20;137403;1273;22296;-82
2023/09/28 12:34:51;;;;;;;15.60;7.00;;;;;;;26.75;46.01;99398.82;137439;1273;22207;-82
2023/09/28 12:37:53;;;;;;;12.50;6.80;;;;;;;26.78;46.39;99397.61;137388;1273;22366;-81
2023/09/28 12:40:59;;;;;;;9.40;5.80;;;;;;;26.74;46.57;99396.89;137434;1273;22167;-82
2023/09/28 12:44:01;;;;;;;9.50;6.40;;;;;;;26.70;46.31;99396.37;137437;1273;22234;-82
2023/09/28 12:47:04;;;;;;;9.80;6.10;;;;;;;26.69;45.92;99388.20;137415;1273;22360;-82
2023/09/28 12:50:05;;;;;;;8.40;6.20;;;;;;;26.73;45.74;99391.76;137432;1273;22801;-81
2023/09/28 12:53:08;;;;;;;8.60;6.70;;;;;;;26.76;46.02;99387.53;137428;1273;22234;-82
2023/09/28 12:56:09;;;;;;;14.60;7.10;;;;;;;26.79;46.58;99386.13;137447;1273;22193;-81
2023/09/28 12:59:10;;;;;;;13.50;7.20;;;;;;;26.80;46.34;99385.00;137533;1272;22202;-81
2023/09/28 13:02:12;;;;;;;11.60;6.70;;;;;;;26.76;46.38;99385.02;137513;1273;22237;-82
2023/09/28 13:05:14;;;;;;;9.30;6.30;;;;;;;26.73;46.49;99381.80;137555;1273;22189;-81
2023/09/28 13:08:15;;;;;;;12.30;6.20;;;;;;;26.71;46.72;99379.70;137490;1273;22265;-81
2023/09/28 13:11:18;;;;;;;7.00;6.30;;;;;;;26.69;46.38;99383.38;137541;1273;22224;-84
2023/09/28 13:14:25;;;;;;;15.70;6.60;;;;;;;26.61;46.56;99378.36;137515;1273;22216;-83
2023/09/28 13:17:30;;;;;;;57.70;8.30;;;;;;;26.49;46.77;99376.76;137483;1273;22205;-83
2023/09/28 13:20:33;;;;;;;10.90;6.70;;;;;;;26.42;47.00;99379.74;137453;1273;22295;-83
2023/09/28 13:23:34;;;;;;;14.50;6.20;;;;;;;26.35;47.37;99383.30;137502;1273;22174;-84
2023/09/28 13:26:38;;;;;;;10.30;5.90;;;;;;;26.33;47.33;99378.16;137494;1273;22359;-84
2023/09/28 13:29:40;;;;;;;9.10;6.20;;;;;;;26.29;46.48;99382.08;137513;1273;22291;-84
2023/09/28 13:32:41;;;;;;;9.30;6.20;;;;;;;26.27;46.51;99378.60;137512;1273;22212;-84
2023/09/28 13:35:42;;;;;;;8.50;5.60;;;;;;;26.30;46.84;99378.10;137428;1273;22207;-84
2023/09/28 13:38:44;;;;;;;13.50;6.10;;;;;;;26.38;46.45;99377.47;137466;1273;22317;-84
2023/09/28 13:41:45;;;;;;;12.40;6.00;;;;;;;26.44;46.71;99370.92;137437;1267;22363;-84
2023/09/28 13:45:07;;;;;;;46.50;7.20;;;;;;;26.51;46.19;99372.39;132388;1307;545923;-83
2023/09/28 13:48:09;;;;;;;16.00;6.50;;;;;;;26.45;46.24;99371.98;135661;1291;22534;-82